Hensler, North Dakota
Current Conditions -  °F | °C
As of 9:55 AM on Saturday 20 Dec 2014 (Local Time) from KHZE Reporting Station
Overcast Overcast  
Wind Chill: 18°   Ceiling: 8500
Heat Index: 18°   Visibility: 8mi
Dew Point: 16°   Wind: 3mph
Humidity: 93%   Direction: 60°ENE
Pressure: 29.88"   Gusts: NA
Location:  47.1146°N, 101.343°W
Report Text: KHZE 201555Z AUTO 06003KT 8SM BKN085 OVC100 M08/M09 A2988 RMK AO2
Loading
Personal Weather Stations






























Interactive Weather Map New forecast layout! Learn more

10-Day Weather Forecast

Advertisements
Track Severe Weather on mobile